createdAt,value
2019-05-01T00:00:20.354Z,16.97
2019-05-01T00:02:50.251Z,16.97
2019-05-01T00:05:23.165Z,16.60
2019-05-01T00:07:51.456Z,16.52
2019-05-01T00:10:20.057Z,15.98
2019-05-01T00:12:48.297Z,16.27
2019-05-01T00:15:16.567Z,17.42
2019-05-01T00:17:44.828Z,16.17
2019-05-01T00:20:13.542Z,16.87
2019-05-01T00:22:41.792Z,15.93
2019-05-01T00:25:10.040Z,16.27
2019-05-01T00:27:38.294Z,16.75
2019-05-01T00:30:08.270Z,16.75
2019-05-01T00:32:36.501Z,16.35
2019-05-01T00:35:06.233Z,15.78
2019-05-01T00:37:34.484Z,15.72
2019-05-01T00:40:02.993Z,16.55
2019-05-01T00:42:31.277Z,16.30
2019-05-01T00:44:59.544Z,15.28
2019-05-01T00:47:27.815Z,14.90
2019-05-01T00:49:56.134Z,15.98
2019-05-01T00:52:24.367Z,15.18
2019-05-01T00:54:54.233Z,15.48
2019-05-01T00:57:24.135Z,15.08
2019-05-01T01:00:00.040Z,15.48
2019-05-01T01:02:32.652Z,14.95
2019-05-01T01:05:00.898Z,15.63
2019-05-01T01:07:29.150Z,15.32
2019-05-01T01:09:57.401Z,14.63
2019-05-01T01:12:25.663Z,15.90
2019-05-01T01:14:53.904Z,13.95
2019-05-01T01:17:22.157Z,14.95
2019-05-01T01:19:50.412Z,13.62
2019-05-01T01:25:47.651Z,13.98
2019-05-01T01:28:15.896Z,15.08
2019-05-01T01:30:55.578Z,15.48
2019-05-01T01:33:14.133Z,14.93
2019-05-01T01:35:42.447Z,15.55
2019-05-01T01:38:10.720Z,15.25
2019-05-01T01:40:39.044Z,14.70
2019-05-01T01:43:25.234Z,14.60
2019-05-01T01:45:55.139Z,14.65
2019-05-01T01:48:23.365Z,14.87
2019-05-01T01:50:51.629Z,14.18
2019-05-01T01:53:20.344Z,14.50
2019-05-01T01:55:48.605Z,15.28
2019-05-01T01:58:16.954Z,13.65
2019-05-01T02:01:08.460Z,15.08
2019-05-01T02:03:27.342Z,14.38
2019-05-01T02:05:56.751Z,14.35
2019-05-01T02:08:25.049Z,14.13
2019-05-01T02:10:53.325Z,14.40
2019-05-01T02:13:21.678Z,14.38
2019-05-01T02:15:49.931Z,14.38
2019-05-01T02:18:18.181Z,13.60
2019-05-01T02:20:46.455Z,14.58
2019-05-01T02:23:14.693Z,14.00
2019-05-01T02:25:43.923Z,13.78
2019-05-01T02:28:29.161Z,14.50
2019-05-01T02:31:27.414Z,13.80
2019-05-01T02:33:47.123Z,13.30
2019-05-01T02:36:15.942Z,13.72
2019-05-01T02:38:44.506Z,13.40
2019-05-01T02:41:12.755Z,13.80
2019-05-01T02:43:41.810Z,13.75
2019-05-01T02:46:10.704Z,13.70
2019-05-01T02:48:42.213Z,13.28
2019-05-01T02:51:10.475Z,12.40
2019-05-01T02:53:38.723Z,12.93
2019-05-01T02:56:20.771Z,13.55
2019-05-01T02:58:49.564Z,13.13
2019-05-01T03:01:17.811Z,13.05
2019-05-01T03:03:46.132Z,13.55
2019-05-01T03:06:14.396Z,12.85
2019-05-01T03:08:42.994Z,12.10
2019-05-01T03:11:11.271Z,12.82
2019-05-01T03:13:39.499Z,12.60
2019-05-01T03:16:07.774Z,12.15
2019-05-01T03:18:37.720Z,13.83
2019-05-01T03:21:07.655Z,12.98
2019-05-01T03:23:43.122Z,12.33
2019-05-01T03:26:11.401Z,12.23
2019-05-01T03:28:39.712Z,13.08
2019-05-01T03:31:07.963Z,12.88
2019-05-01T03:33:36.223Z,12.53
2019-05-01T03:36:04.525Z,13.03
2019-05-01T03:38:32.782Z,12.73
2019-05-01T03:41:01.501Z,13.00
2019-05-01T03:43:29.756Z,13.03
2019-05-01T03:45:58.040Z,12.33
2019-05-01T03:48:26.349Z,11.93
2019-05-01T03:50:54.588Z,12.58
2019-05-01T03:53:23.481Z,12.58
2019-05-01T03:55:51.725Z,12.95
2019-05-01T03:58:19.981Z,12.55
2019-05-01T04:00:49.863Z,12.18
2019-05-01T04:03:19.834Z,11.85
2019-05-01T04:05:48.078Z,12.18
2019-05-01T04:08:17.197Z,11.90
2019-05-01T04:10:45.993Z,12.45
2019-05-01T04:13:14.392Z,12.37
2019-05-01T04:15:42.890Z,12.23
2019-05-01T04:18:11.144Z,12.28
2019-05-01T04:20:39.499Z,11.90
2019-05-01T04:23:07.799Z,12.05
2019-05-01T04:25:36.100Z,12.85
2019-05-01T04:28:22.496Z,12.25
2019-05-01T04:31:07.671Z,12.07
2019-05-01T04:33:37.560Z,12.13
2019-05-01T04:36:13.199Z,11.93
2019-05-01T04:38:41.437Z,10.88
2019-05-01T04:41:09.697Z,12.03
2019-05-01T04:43:37.975Z,11.53
2019-05-01T04:46:06.275Z,12.20
2019-05-01T04:48:34.533Z,12.75
2019-05-01T04:51:02.789Z,11.90
2019-05-01T04:53:31.051Z,12.03
2019-05-01T04:55:59.300Z,12.80
2019-05-01T04:58:27.547Z,11.48
2019-05-01T05:00:55.820Z,12.58
2019-05-01T05:03:25.729Z,12.80
2019-05-01T05:05:53.949Z,12.68
2019-05-01T05:08:22.246Z,13.22
2019-05-01T05:10:52.113Z,12.70
2019-05-01T05:13:38.592Z,12.80
2019-05-01T05:16:24.980Z,12.47
2019-05-01T05:18:53.242Z,12.23
2019-05-01T05:21:21.492Z,13.10
2019-05-01T05:23:49.809Z,13.13
2019-05-01T05:26:18.108Z,12.88
2019-05-01T05:28:46.361Z,13.62
2019-05-01T05:31:14.620Z,12.68
2019-05-01T05:33:42.877Z,13.70
2019-05-01T05:36:11.184Z,15.32
2019-05-01T05:38:47.379Z,13.22
2019-05-01T05:41:15.629Z,13.28
2019-05-01T05:43:44.053Z,12.58
2019-05-01T05:46:12.595Z,13.18
2019-05-01T05:48:41.003Z,13.18
2019-05-01T05:51:18.307Z,13.25
2019-05-01T05:54:07.443Z,13.90
2019-05-01T05:56:43.226Z,13.72
2019-05-01T05:59:13.207Z,13.72
2019-05-01T06:01:55.028Z,14.03
2019-05-01T06:04:37.278Z,13.70
2019-05-01T06:07:07.176Z,13.60
2019-05-01T06:09:37.093Z,13.55
2019-05-01T06:12:10.183Z,14.30
2019-05-01T06:17:35.116Z,13.58
2019-05-01T06:20:10.489Z,13.48
2019-05-01T06:22:56.777Z,14.55
2019-05-01T06:25:29.563Z,13.55
2019-05-01T06:27:57.824Z,14.70
2019-05-01T06:30:26.223Z,14.78
2019-05-01T06:32:54.460Z,14.07
2019-05-01T06:35:22.716Z,15.40
2019-05-01T06:38:05.549Z,14.95
2019-05-01T06:40:35.571Z,15.25
2019-05-01T06:43:03.900Z,14.03
2019-05-01T06:45:32.380Z,14.40
2019-05-01T06:48:05.233Z,15.75
2019-05-01T06:50:37.033Z,14.30
2019-05-01T06:53:06.433Z,14.53
2019-05-01T06:55:35.088Z,14.40
2019-05-01T06:58:03.325Z,13.85
2019-05-01T07:00:31.656Z,14.98
2019-05-01T07:02:59.885Z,15.83
2019-05-01T07:05:28.162Z,14.80
2019-05-01T07:07:56.419Z,14.35
2019-05-01T07:10:31.705Z,14.23
2019-05-01T07:12:54.993Z,13.90
2019-05-01T07:15:26.774Z,14.38
2019-05-01T07:17:53.252Z,13.32
2019-05-01T07:20:25.491Z,13.72
2019-05-01T07:22:53.107Z,13.20
2019-05-01T07:25:21.386Z,13.45
2019-05-01T07:27:49.621Z,14.28
2019-05-01T07:30:20.875Z,13.00
2019-05-01T07:32:49.353Z,14.00
2019-05-01T07:35:17.620Z,13.80
2019-05-01T07:37:45.861Z,14.45
2019-05-01T07:40:14.127Z,13.72
2019-05-01T07:42:48.238Z,13.40
2019-05-01T07:45:26.485Z,13.45
2019-05-01T07:47:55.915Z,12.60
2019-05-01T07:50:31.364Z,14.43
2019-05-01T07:52:54.163Z,14.30
2019-05-01T07:55:37.504Z,14.10
2019-05-01T08:00:48.519Z,13.87
2019-05-01T08:03:16.775Z,12.88
2019-05-01T08:05:45.423Z,20.00
2019-05-01T08:08:14.951Z,15.30
2019-05-01T08:10:43.198Z,14.65
2019-05-01T08:13:11.457Z,16.10
2019-05-01T08:15:39.727Z,12.20
2019-05-01T08:18:27.869Z,13.00
2019-05-01T08:20:57.460Z,17.75
2019-05-01T08:23:25.724Z,16.40
2019-05-01T08:25:53.995Z,15.40
2019-05-01T08:28:40.185Z,13.55
2019-05-01T08:31:16.035Z,14.60
2019-05-01T08:33:49.952Z,13.75
2019-05-01T08:36:16.070Z,19.02
2019-05-01T08:38:44.371Z,18.25
2019-05-01T08:41:12.633Z,14.55
2019-05-01T08:43:41.274Z,12.55
2019-05-01T08:46:27.837Z,12.75
2019-05-01T08:49:00.710Z,16.40
2019-05-01T08:51:30.166Z,16.52
2019-05-01T08:53:59.574Z,13.40
2019-05-01T08:56:28.046Z,13.48
2019-05-01T08:58:56.291Z,12.88
2019-05-01T09:01:24.621Z,13.53
2019-05-01T09:03:54.154Z,12.80
2019-05-01T09:06:34.282Z,12.40
2019-05-01T09:08:53.001Z,13.25
2019-05-01T09:11:21.322Z,13.53
2019-05-01T09:13:49.723Z,12.95
2019-05-01T09:16:19.282Z,12.63
2019-05-01T09:18:47.729Z,12.75
2019-05-01T09:21:16.119Z,11.68
2019-05-01T09:23:46.252Z,11.48
2019-05-01T09:26:16.393Z,11.90
2019-05-01T09:28:46.401Z,11.43
2019-05-01T09:31:16.342Z,11.83
2019-05-01T09:33:44.697Z,11.08
2019-05-01T09:36:13.087Z,13.38
2019-05-01T09:38:41.422Z,14.30
2019-05-01T09:41:09.789Z,13.80
2019-05-01T09:43:38.176Z,13.18
2019-05-01T09:46:06.439Z,11.57
2019-05-01T09:48:34.685Z,11.10
2019-05-01T09:51:07.672Z,11.80
2019-05-01T09:53:37.548Z,11.10
2019-05-01T09:56:08.840Z,12.95
2019-05-01T09:58:37.415Z,11.70
2019-05-01T10:01:05.727Z,11.57
2019-05-01T10:03:34.021Z,11.08
2019-05-01T10:06:02.297Z,12.15
2019-05-01T10:08:34.662Z,11.97
2019-05-01T10:11:05.242Z,12.78
2019-05-01T10:13:30.499Z,12.43
2019-05-01T10:15:58.799Z,11.83
2019-05-01T10:18:27.055Z,11.53
2019-05-01T10:20:55.315Z,11.65
2019-05-01T10:23:23.589Z,11.90
2019-05-01T10:25:53.464Z,11.30
2019-05-01T10:28:38.599Z,12.45
2019-05-01T10:31:12.027Z,14.38
2019-05-01T10:33:43.041Z,12.37
2019-05-01T10:36:18.634Z,11.43
2019-05-01T10:38:45.223Z,10.23
2019-05-01T10:41:12.880Z,9.95
2019-05-01T10:43:41.150Z,10.03
2019-05-01T10:46:09.382Z,10.40
2019-05-01T10:48:37.671Z,10.98
2019-05-01T10:51:05.929Z,10.35
2019-05-01T10:53:34.173Z,10.25
2019-05-01T10:56:02.442Z,9.60
2019-05-01T10:58:30.697Z,9.35
2019-05-01T11:01:00.602Z,10.35
2019-05-01T11:03:28.856Z,9.68
2019-05-01T11:05:57.104Z,11.05
2019-05-01T11:08:25.384Z,10.72
2019-05-01T11:10:53.633Z,9.50
2019-05-01T11:13:21.924Z,8.88
2019-05-01T11:15:50.193Z,9.05
2019-05-01T11:18:18.425Z,9.60
2019-05-01T11:20:46.456Z,9.13
2019-05-01T11:23:14.455Z,9.08
2019-05-01T11:25:44.648Z,9.60
2019-05-01T11:28:12.446Z,9.05
2019-05-01T11:30:40.687Z,9.53
2019-05-01T11:33:10.594Z,8.70
2019-05-01T11:35:40.500Z,8.10
2019-05-01T11:38:19.123Z,8.88
2019-05-01T11:40:49.190Z,9.25
2019-05-01T11:43:17.429Z,9.08
2019-05-01T11:45:45.739Z,8.85
2019-05-01T11:48:13.995Z,8.53
2019-05-01T11:50:41.997Z,9.93
2019-05-01T11:53:10.003Z,8.58
2019-05-01T11:55:38.054Z,8.75
2019-05-01T11:58:06.066Z,9.28
2019-05-01T12:00:34.071Z,9.73
2019-05-01T12:03:02.105Z,10.53
2019-05-01T12:05:30.118Z,10.95
2019-05-01T12:07:58.378Z,11.50
2019-05-01T12:10:26.634Z,10.08
2019-05-01T12:12:54.886Z,10.10
2019-05-01T12:15:23.141Z,9.68
2019-05-01T12:17:51.405Z,9.45
2019-05-01T12:20:20.021Z,9.65
2019-05-01T12:22:51.255Z,8.88
2019-05-01T12:25:18.264Z,9.40
2019-05-01T12:27:46.514Z,9.25
2019-05-01T12:30:16.145Z,8.95
2019-05-01T12:32:44.410Z,10.95
2019-05-01T12:35:12.790Z,9.10
2019-05-01T12:37:44.215Z,9.40
2019-05-01T12:40:14.954Z,9.25
2019-05-01T12:42:43.225Z,9.48
2019-05-01T12:45:11.534Z,8.80
2019-05-01T12:47:47.460Z,8.50
2019-05-01T12:50:15.725Z,7.85
2019-05-01T12:52:45.685Z,8.85
2019-05-01T12:55:32.110Z,7.87
2019-05-01T12:58:00.327Z,6.85
2019-05-01T13:00:43.071Z,7.65
2019-05-01T13:03:11.591Z,6.83
2019-05-01T13:05:39.950Z,7.20
2019-05-01T13:08:09.058Z,7.83
2019-05-01T13:10:37.301Z,7.20
2019-05-01T13:13:05.589Z,7.80
2019-05-01T13:15:33.828Z,7.50
2019-05-01T13:18:02.076Z,11.65
2019-05-01T13:20:30.360Z,8.80
2019-05-01T13:22:58.669Z,8.05
2019-05-01T13:25:26.926Z,8.38
2019-05-01T13:28:15.282Z,6.35
2019-05-01T13:30:45.159Z,7.87
2019-05-01T13:33:13.402Z,8.33
2019-05-01T13:35:41.668Z,7.83
2019-05-01T13:38:09.916Z,8.20
2019-05-01T13:40:38.173Z,8.35
2019-05-01T13:43:06.437Z,8.63
2019-05-01T13:45:34.687Z,8.20
2019-05-01T13:48:02.952Z,7.83
2019-05-01T13:50:31.271Z,8.78
2019-05-01T13:52:59.525Z,8.00
2019-05-01T13:55:28.059Z,11.70
2019-05-01T13:57:56.391Z,10.65
2019-05-01T14:00:26.032Z,9.90
2019-05-01T14:02:54.272Z,8.60
2019-05-01T14:05:22.523Z,8.70
2019-05-01T14:07:50.779Z,9.08
2019-05-01T14:10:19.190Z,8.03
2019-05-01T14:12:47.439Z,8.28
2019-05-01T14:15:15.690Z,8.80
2019-05-01T14:17:43.942Z,9.30
2019-05-01T14:20:30.100Z,10.38
2019-05-01T14:23:00.022Z,8.93
2019-05-01T14:25:29.900Z,9.05
2019-05-01T14:27:58.178Z,8.38
2019-05-01T14:30:26.483Z,8.65
2019-05-01T14:32:54.781Z,10.03
2019-05-01T14:35:23.038Z,9.78
2019-05-01T14:37:51.279Z,9.60
2019-05-01T14:40:19.636Z,10.55
2019-05-01T14:42:47.881Z,9.05
2019-05-01T14:45:16.519Z,14.70
2019-05-01T14:47:44.760Z,11.03
2019-05-01T14:50:13.021Z,10.28
2019-05-01T14:52:41.283Z,9.73
2019-05-01T14:55:09.613Z,10.28
2019-05-01T14:57:37.880Z,9.95
2019-05-01T15:00:07.745Z,11.03
2019-05-01T15:02:36.002Z,9.88
2019-05-01T15:05:06.104Z,10.58
2019-05-01T15:07:43.343Z,14.98
2019-05-01T15:10:05.373Z,17.17
2019-05-01T15:12:33.597Z,10.75
2019-05-01T15:15:12.084Z,9.23
2019-05-01T15:17:44.955Z,10.30
2019-05-01T15:22:40.791Z,10.03
2019-05-01T15:25:09.109Z,11.40
2019-05-01T15:27:37.372Z,10.70
2019-05-01T15:30:06.501Z,10.53
2019-05-01T15:32:34.775Z,9.00
2019-05-01T15:35:03.292Z,9.58
2019-05-01T15:37:31.546Z,9.18
2019-05-01T15:40:01.479Z,10.25
2019-05-01T15:42:34.347Z,9.83
2019-05-01T15:47:30.142Z,10.50
2019-05-01T15:49:58.453Z,10.55
2019-05-01T15:52:26.708Z,10.78
2019-05-01T15:54:54.968Z,14.18
2019-05-01T15:57:23.229Z,10.20
2019-05-01T15:59:51.497Z,11.18
2019-05-01T16:02:19.749Z,10.58
2019-05-01T16:04:48.072Z,9.28
2019-05-01T16:07:16.343Z,9.55
2019-05-01T16:09:44.593Z,9.50
2019-05-01T16:12:14.496Z,9.20
2019-05-01T16:14:43.189Z,9.50
2019-05-01T16:17:11.473Z,9.38
2019-05-01T16:19:39.730Z,13.00
2019-05-01T16:22:07.988Z,9.75
2019-05-01T16:24:36.236Z,10.65
2019-05-01T16:27:04.865Z,11.57
2019-05-01T16:29:33.126Z,11.12
2019-05-01T16:32:01.383Z,10.63
2019-05-01T16:34:29.622Z,10.23
2019-05-01T16:36:57.887Z,10.15
2019-05-01T16:39:44.377Z,10.60
2019-05-01T16:42:12.683Z,10.58
2019-05-01T16:44:40.961Z,10.40
2019-05-01T16:47:09.289Z,10.50
2019-05-01T16:49:37.537Z,10.25
2019-05-01T16:52:05.781Z,10.32
2019-05-01T16:54:34.035Z,10.68
2019-05-01T16:57:02.303Z,10.25
2019-05-01T16:59:30.561Z,10.80
2019-05-01T17:02:06.482Z,9.48
2019-05-01T17:04:45.401Z,9.13
2019-05-01T17:07:31.614Z,10.05
2019-05-01T17:10:10.671Z,9.15
2019-05-01T17:12:43.419Z,8.53
2019-05-01T17:15:11.737Z,9.40
2019-05-01T17:17:39.976Z,9.53
2019-05-01T17:20:08.236Z,10.03
2019-05-01T17:22:36.518Z,9.40
2019-05-01T17:25:07.488Z,8.70
2019-05-01T17:27:35.746Z,8.53
2019-05-01T17:30:09.649Z,8.60
2019-05-01T17:32:39.847Z,8.75
2019-05-01T17:35:08.109Z,15.53
2019-05-01T17:37:36.445Z,24.82
2019-05-01T17:40:06.321Z,23.02
2019-05-01T17:42:37.680Z,14.80
2019-05-01T17:45:06.495Z,12.63
2019-05-01T17:47:34.766Z,12.20
2019-05-01T17:50:03.100Z,9.88
2019-05-01T17:52:31.376Z,9.15
2019-05-01T17:55:01.344Z,8.33
2019-05-01T17:57:29.749Z,9.48
2019-05-01T17:59:59.654Z,9.10
2019-05-01T18:02:35.574Z,8.03
2019-05-01T18:05:05.465Z,8.03
2019-05-01T18:07:34.985Z,8.33
2019-05-01T18:10:05.860Z,8.53
2019-05-01T18:12:34.103Z,9.03
2019-05-01T18:15:02.426Z,9.08
2019-05-01T18:17:30.669Z,9.43
2019-05-01T18:19:58.960Z,9.55
2019-05-01T18:22:37.067Z,9.05
2019-05-01T18:25:10.351Z,14.33
2019-05-01T18:27:49.947Z,19.65
2019-05-01T18:30:20.476Z,13.10
2019-05-01T18:32:51.960Z,10.90
2019-05-01T18:35:19.205Z,10.18
2019-05-01T18:38:01.071Z,9.08
2019-05-01T18:40:33.732Z,9.73
2019-05-01T18:43:00.939Z,9.90
2019-05-01T18:45:49.918Z,9.55
2019-05-01T18:48:18.255Z,9.68
2019-05-01T18:50:49.353Z,9.55
2019-05-01T18:53:18.714Z,9.60
2019-05-01T18:55:46.696Z,10.23
2019-05-01T18:58:14.970Z,10.08
2019-05-01T19:00:43.913Z,10.78
2019-05-01T19:03:12.177Z,10.65
2019-05-01T19:05:43.110Z,10.55
2019-05-01T19:08:10.457Z,10.60
2019-05-01T19:10:38.779Z,9.93
2019-05-01T19:13:07.889Z,10.72
2019-05-01T19:15:36.131Z,9.75
2019-05-01T19:18:04.397Z,10.18
2019-05-01T19:20:32.673Z,16.15
2019-05-01T19:23:03.966Z,16.80
2019-05-01T19:25:32.242Z,12.23
2019-05-01T19:28:01.735Z,10.60
2019-05-01T19:30:29.991Z,11.00
2019-05-01T19:32:58.294Z,10.78
2019-05-01T19:35:29.599Z,10.32
2019-05-01T19:37:57.441Z,10.95
2019-05-01T19:40:30.761Z,10.98
2019-05-01T19:42:58.131Z,11.93
2019-05-01T19:45:26.556Z,11.63
2019-05-01T19:47:54.836Z,11.05
2019-05-01T19:50:23.097Z,11.48
2019-05-01T19:52:51.391Z,11.85
2019-05-01T19:55:19.697Z,10.70
2019-05-01T19:57:48.057Z,11.08
2019-05-01T20:00:20.807Z,11.60
2019-05-01T20:02:54.330Z,12.18
2019-05-01T20:08:08.846Z,12.53
2019-05-01T20:10:37.188Z,12.63
2019-05-01T20:13:07.044Z,12.75
2019-05-01T20:15:35.535Z,14.20
2019-05-01T20:18:03.981Z,13.65
2019-05-01T20:20:32.433Z,14.23
2019-05-01T20:23:00.786Z,20.27
2019-05-01T20:25:29.183Z,24.52
2019-05-01T20:27:57.549Z,17.25
2019-05-01T20:30:25.982Z,14.93
2019-05-01T20:32:58.127Z,13.30
2019-05-01T20:35:28.416Z,13.48
2019-05-01T20:37:54.408Z,12.05
2019-05-01T20:40:22.799Z,12.25
2019-05-01T20:42:51.055Z,11.50
2019-05-01T20:45:19.686Z,12.10
2019-05-01T20:47:48.382Z,12.47
2019-05-01T20:50:16.860Z,12.25
2019-05-01T20:52:45.213Z,10.95
2019-05-01T20:55:13.552Z,12.40
2019-05-01T20:57:43.538Z,16.27
2019-05-01T21:00:16.507Z,17.77
2019-05-01T21:02:43.110Z,20.23
2019-05-01T21:05:17.009Z,15.95
2019-05-01T21:10:24.509Z,11.85
2019-05-01T21:12:44.631Z,11.50
2019-05-01T21:15:12.940Z,12.03
2019-05-01T21:17:44.166Z,12.28
2019-05-01T21:20:13.355Z,11.83
2019-05-01T21:22:43.409Z,11.30
2019-05-01T21:25:11.389Z,11.65
2019-05-01T21:27:39.681Z,12.47
2019-05-01T21:30:08.654Z,12.20
2019-05-01T21:32:36.922Z,12.60
2019-05-01T21:35:05.459Z,11.85
2019-05-01T21:37:33.694Z,13.40
2019-05-01T21:40:02.712Z,11.83
2019-05-01T21:42:32.649Z,11.40
2019-05-01T21:45:01.021Z,10.72
2019-05-01T21:47:29.281Z,10.95
2019-05-01T21:49:57.548Z,11.25
2019-05-01T21:52:26.990Z,10.70
2019-05-01T21:54:57.017Z,10.53
2019-05-01T21:57:29.558Z,10.50
2019-05-01T21:59:55.514Z,11.48
2019-05-01T22:02:23.773Z,11.03
2019-05-01T22:04:51.997Z,9.85
2019-05-01T22:07:23.877Z,10.05
2019-05-01T22:09:51.652Z,9.45
2019-05-01T22:12:20.021Z,9.63
2019-05-01T22:14:49.941Z,8.40
2019-05-01T22:17:19.821Z,8.45
2019-05-01T22:19:48.090Z,8.28
2019-05-01T22:22:38.848Z,8.40
2019-05-01T22:25:11.245Z,8.78
2019-05-01T22:27:41.147Z,8.38
2019-05-01T22:30:12.705Z,8.50
2019-05-01T22:32:42.781Z,7.72
2019-05-01T22:35:15.374Z,7.72
2019-05-01T22:37:43.631Z,7.75
2019-05-01T22:40:13.502Z,7.67
2019-05-01T22:42:41.771Z,8.00
2019-05-01T22:45:16.073Z,16.10
2019-05-01T22:47:46.079Z,10.00
2019-05-01T22:50:14.307Z,7.67
2019-05-01T22:52:42.525Z,7.92
2019-05-01T22:55:12.270Z,7.17
2019-05-01T22:57:40.508Z,7.37
2019-05-01T23:00:12.052Z,7.33
2019-05-01T23:02:41.897Z,6.78
2019-05-01T23:05:10.158Z,7.03
2019-05-01T23:07:38.401Z,6.90
2019-05-01T23:10:07.295Z,6.95
2019-05-01T23:12:35.539Z,6.78
2019-05-01T23:15:08.284Z,6.70
2019-05-01T23:17:39.648Z,7.00
2019-05-01T23:20:09.349Z,7.00
2019-05-01T23:22:37.668Z,6.83
2019-05-01T23:25:06.293Z,7.10
2019-05-01T23:27:34.625Z,6.55
2019-05-01T23:30:04.284Z,6.62
2019-05-01T23:32:32.518Z,6.40
2019-05-01T23:35:00.776Z,6.53
2019-05-01T23:37:29.045Z,6.65
2019-05-01T23:39:57.306Z,6.28
2019-05-01T23:42:25.551Z,6.20
2019-05-01T23:44:53.812Z,7.15
2019-05-01T23:47:22.123Z,6.30
2019-05-01T23:49:52.494Z,6.58
2019-05-01T23:52:20.005Z,6.17
2019-05-01T23:54:47.999Z,6.55
2019-05-01T23:57:18.765Z,6.87
2019-05-01T23:59:45.721Z,6.15
